sensor_id;sensor_type;location;lat;lon;timestamp;pressure;altitude;pressure_sealevel;temperature;humidity
10348;BME280;5220;43.192;23.284;2023-12-14T00:01:45;95715.72;;;17.23;55.65
10348;BME280;5220;43.192;23.284;2023-12-14T00:04:15;95722.69;;;17.16;55.08
10348;BME280;5220;43.192;23.284;2023-12-14T00:06:42;95727.59;;;17.04;56.45
10348;BME280;5220;43.192;23.284;2023-12-14T00:09:08;95705.22;;;16.94;56.26
10348;BME280;5220;43.192;23.284;2023-12-14T00:11:37;95705.03;;;16.95;56.79
10348;BME280;5220;43.192;23.284;2023-12-14T00:14:05;95715.53;;;17.10;56.67
10348;BME280;5220;43.192;23.284;2023-12-14T00:16:32;95712.00;;;17.17;56.13
10348;BME280;5220;43.192;23.284;2023-12-14T00:18:59;95702.59;;;17.08;54.34
10348;BME280;5220;43.192;23.284;2023-12-14T00:21:27;95714.72;;;17.09;55.14
10348;BME280;5220;43.192;23.284;2023-12-14T00:23:54;95731.31;;;17.10;54.49
10348;BME280;5220;43.192;23.284;2023-12-14T00:26:20;95739.75;;;17.05;55.36
10348;BME280;5220;43.192;23.284;2023-12-14T00:28:47;95729.50;;;17.10;54.59
10348;BME280;5220;43.192;23.284;2023-12-14T00:31:14;95735.38;;;17.12;55.10
10348;BME280;5220;43.192;23.284;2023-12-14T00:33:41;95736.94;;;16.92;56.26
10348;BME280;5220;43.192;23.284;2023-12-14T00:36:08;95739.81;;;16.68;57.03
10348;BME280;5220;43.192;23.284;2023-12-14T00:38:36;95732.56;;;16.70;55.83
10348;BME280;5220;43.192;23.284;2023-12-14T00:41:05;95724.25;;;16.81;57.08
10348;BME280;5220;43.192;23.284;2023-12-14T00:43:32;95725.50;;;16.71;57.63
10348;BME280;5220;43.192;23.284;2023-12-14T00:45:58;95726.59;;;16.76;57.77
10348;BME280;5220;43.192;23.284;2023-12-14T00:48:25;95730.50;;;16.80;56.32
10348;BME280;5220;43.192;23.284;2023-12-14T00:50:52;95736.56;;;16.81;56.21
10348;BME280;5220;43.192;23.284;2023-12-14T00:53:18;95739.59;;;16.55;59.57
10348;BME280;5220;43.192;23.284;2023-12-14T00:55:46;95741.94;;;16.50;57.90
10348;BME280;5220;43.192;23.284;2023-12-14T00:58:13;95728.81;;;16.50;57.04
10348;BME280;5220;43.192;23.284;2023-12-14T01:00:40;95748.31;;;16.47;57.78
10348;BME280;5220;43.192;23.284;2023-12-14T01:03:07;95739.25;;;16.58;57.52
10348;BME280;5220;43.192;23.284;2023-12-14T01:05:34;95741.94;;;16.50;58.07
10348;BME280;5220;43.192;23.284;2023-12-14T01:08:01;95724.31;;;16.58;59.17
10348;BME280;5220;43.192;23.284;2023-12-14T01:10:27;95710.72;;;16.55;57.47
10348;BME280;5220;43.192;23.284;2023-12-14T01:12:55;95727.75;;;16.36;60.23
10348;BME280;5220;43.192;23.284;2023-12-14T01:15:22;95718.72;;;16.39;60.14
10348;BME280;5220;43.192;23.284;2023-12-14T01:17:49;95733.88;;;16.29;60.63
10348;BME280;5220;43.192;23.284;2023-12-14T01:20:17;95722.50;;;16.36;59.49
10348;BME280;5220;43.192;23.284;2023-12-14T01:22:43;95718.81;;;16.45;59.42
10348;BME280;5220;43.192;23.284;2023-12-14T01:25:10;95727.22;;;16.41;58.31
10348;BME280;5220;43.192;23.284;2023-12-14T01:27:37;95711.66;;;16.54;57.38
10348;BME280;5220;43.192;23.284;2023-12-14T01:30:06;95710.13;;;16.45;57.92
10348;BME280;5220;43.192;23.284;2023-12-14T01:32:33;95697.28;;;16.50;56.43
10348;BME280;5220;43.192;23.284;2023-12-14T01:35:00;95706.56;;;16.38;57.93
10348;BME280;5220;43.192;23.284;2023-12-14T01:37:27;95673.97;;;16.55;54.80
10348;BME280;5220;43.192;23.284;2023-12-14T01:39:55;95669.06;;;16.66;56.94
10348;BME280;5220;43.192;23.284;2023-12-14T01:42:21;95654.69;;;16.62;55.99
10348;BME280;5220;43.192;23.284;2023-12-14T01:44:48;95680.50;;;16.59;56.38
10348;BME280;5220;43.192;23.284;2023-12-14T01:47:16;95677.41;;;16.55;55.70
10348;BME280;5220;43.192;23.284;2023-12-14T01:49:43;95688.28;;;16.67;55.48
10348;BME280;5220;43.192;23.284;2023-12-14T01:52:10;95676.34;;;16.64;56.62
10348;BME280;5220;43.192;23.284;2023-12-14T01:54:36;95666.56;;;16.58;60.53
10348;BME280;5220;43.192;23.284;2023-12-14T01:57:03;95654.03;;;16.60;57.87
10348;BME280;5220;43.192;23.284;2023-12-14T01:59:30;95667.53;;;16.72;56.81
10348;BME280;5220;43.192;23.284;2023-12-14T02:01:57;95670.00;;;16.59;58.79
10348;BME280;5220;43.192;23.284;2023-12-14T02:04:26;95664.47;;;16.69;58.13
10348;BME280;5220;43.192;23.284;2023-12-14T02:06:53;95661.16;;;16.52;57.95
10348;BME280;5220;43.192;23.284;2023-12-14T02:09:19;95653.56;;;16.42;57.16
10348;BME280;5220;43.192;23.284;2023-12-14T02:11:46;95651.19;;;16.47;55.64
10348;BME280;5220;43.192;23.284;2023-12-14T02:14:13;95641.97;;;16.51;56.23
10348;BME280;5220;43.192;23.284;2023-12-14T02:16:40;95632.22;;;16.60;54.55
10348;BME280;5220;43.192;23.284;2023-12-14T02:19:06;95649.44;;;16.62;56.17
10348;BME280;5220;43.192;23.284;2023-12-14T02:21:34;95652.69;;;16.64;55.53
10348;BME280;5220;43.192;23.284;2023-12-14T02:24:03;95654.03;;;16.60;55.75
10348;BME280;5220;43.192;23.284;2023-12-14T02:26:30;95651.78;;;16.72;53.99
10348;BME280;5220;43.192;23.284;2023-12-14T02:28:57;95659.38;;;16.82;54.56
10348;BME280;5220;43.192;23.284;2023-12-14T02:31:23;95626.78;;;16.76;53.14
10348;BME280;5220;43.192;23.284;2023-12-14T02:33:50;95619.38;;;16.80;53.96
10348;BME280;5220;43.192;23.284;2023-12-14T02:36:17;95623.78;;;16.79;53.63
10348;BME280;5220;43.192;23.284;2023-12-14T02:38:44;95637.09;;;16.63;53.89
10348;BME280;5220;43.192;23.284;2023-12-14T02:41:12;95621.38;;;16.78;53.22
10348;BME280;5220;43.192;23.284;2023-12-14T02:43:38;95628.31;;;16.85;52.89
10348;BME280;5220;43.192;23.284;2023-12-14T02:46:06;95634.59;;;16.84;52.99
10348;BME280;5220;43.192;23.284;2023-12-14T02:48:32;95617.06;;;16.91;53.58
10348;BME280;5220;43.192;23.284;2023-12-14T02:50:59;95634.47;;;16.92;52.87
10348;BME280;5220;43.192;23.284;2023-12-14T02:53:26;95620.28;;;16.87;53.69
10348;BME280;5220;43.192;23.284;2023-12-14T02:55:53;95632.13;;;16.83;52.90
10348;BME280;5220;43.192;23.284;2023-12-14T02:58:21;95628.69;;;16.82;52.42
10348;BME280;5220;43.192;23.284;2023-12-14T03:00:48;95607.50;;;16.84;51.41
10348;BME280;5220;43.192;23.284;2023-12-14T03:03:15;95616.19;;;16.99;52.12
10348;BME280;5220;43.192;23.284;2023-12-14T03:05:42;95641.66;;;16.84;53.15
10348;BME280;5220;43.192;23.284;2023-12-14T03:08:08;95614.22;;;16.72;53.22
10348;BME280;5220;43.192;23.284;2023-12-14T03:10:35;95626.78;;;16.76;52.61
10348;BME280;5220;43.192;23.284;2023-12-14T03:13:02;95632.06;;;16.61;52.72
10348;BME280;5220;43.192;23.284;2023-12-14T03:15:30;95629.63;;;16.75;53.72
10348;BME280;5220;43.192;23.284;2023-12-14T03:17:57;95628.78;;;16.74;52.94
10348;BME280;5220;43.192;23.284;2023-12-14T03:20:23;95627.16;;;16.73;54.19
10348;BME280;5220;43.192;23.284;2023-12-14T03:22:50;95633.28;;;16.36;55.45
10348;BME280;5220;43.192;23.284;2023-12-14T03:25:17;95640.59;;;16.41;55.59
10348;BME280;5220;43.192;23.284;2023-12-14T03:27:44;95637.22;;;16.55;56.38
10348;BME280;5220;43.192;23.284;2023-12-14T03:30:11;95634.03;;;16.59;56.54
10348;BME280;5220;43.192;23.284;2023-12-14T03:32:39;95645.78;;;16.49;55.00
10348;BME280;5220;43.192;23.284;2023-12-14T03:35:06;95647.81;;;16.24;54.69
10348;BME280;5220;43.192;23.284;2023-12-14T03:37:33;95662.84;;;15.93;57.33
10348;BME280;5220;43.192;23.284;2023-12-14T03:40:01;95656.44;;;15.95;56.05
10348;BME280;5220;43.192;23.284;2023-12-14T03:42:27;95646.56;;;15.97;56.21
10348;BME280;5220;43.192;23.284;2023-12-14T03:44:54;95663.56;;;16.09;57.08
10348;BME280;5220;43.192;23.284;2023-12-14T03:47:21;95643.00;;;16.13;56.60
10348;BME280;5220;43.192;23.284;2023-12-14T03:49:49;95670.09;;;16.28;57.26
10348;BME280;5220;43.192;23.284;2023-12-14T03:52:16;95688.28;;;16.30;55.44
10348;BME280;5220;43.192;23.284;2023-12-14T03:54:43;95696.25;;;16.36;56.63
10348;BME280;5220;43.192;23.284;2023-12-14T03:57:09;95647.53;;;16.19;56.50
10348;BME280;5220;43.192;23.284;2023-12-14T03:59:39;95662.91;;;16.22;58.14
10348;BME280;5220;43.192;23.284;2023-12-14T04:02:06;95719.25;;;16.34;57.76
10348;BME280;5220;43.192;23.284;2023-12-14T04:04:32;95702.03;;;16.32;58.88
10348;BME280;5220;43.192;23.284;2023-12-14T04:07:01;95673.53;;;16.29;57.31
10348;BME280;5220;43.192;23.284;2023-12-14T04:09:27;95716.41;;;16.21;58.14
10348;BME280;5220;43.192;23.284;2023-12-14T04:11:54;95690.28;;;16.28;58.80
10348;BME280;5220;43.192;23.284;2023-12-14T04:14:21;95694.72;;;16.04;60.35
10348;BME280;5220;43.192;23.284;2023-12-14T04:16:48;95736.09;;;15.72;62.40
10348;BME280;5220;43.192;23.284;2023-12-14T04:19:14;95756.44;;;15.31;61.43
10348;BME280;5220;43.192;23.284;2023-12-14T04:21:41;95759.63;;;13.57;74.92
10348;BME280;5220;43.192;23.284;2023-12-14T04:24:09;95780.22;;;12.92;85.35
10348;BME280;5220;43.192;23.284;2023-12-14T04:26:38;95799.78;;;12.45;87.69
10348;BME280;5220;43.192;23.284;2023-12-14T04:29:05;95837.75;;;11.12;100.00
10348;BME280;5220;43.192;23.284;2023-12-14T04:33:59;95841.28;;;9.98;100.00
10348;BME280;5220;43.192;23.284;2023-12-14T04:36:26;95835.81;;;9.32;100.00
10348;BME280;5220;43.192;23.284;2023-12-14T04:38:53;95833.38;;;9.31;100.00
10348;BME280;5220;43.192;23.284;2023-12-14T04:41:21;95866.81;;;8.52;100.00
10348;BME280;5220;43.192;23.284;2023-12-14T04:43:48;95871.69;;;8.97;100.00
10348;BME280;5220;43.192;23.284;2023-12-14T04:46:15;95879.53;;;9.27;100.00
10348;BME280;5220;43.192;23.284;2023-12-14T04:48:42;95888.56;;;8.61;100.00
10348;BME280;5220;43.192;23.284;2023-12-14T04:51:11;95911.19;;;9.00;100.00
10348;BME280;5220;43.192;23.284;2023-12-14T04:53:38;95900.84;;;8.16;100.00
10348;BME280;5220;43.192;23.284;2023-12-14T04:56:05;95920.09;;;8.02;100.00
10348;BME280;5220;43.192;23.284;2023-12-14T04:58:37;95936.72;;;8.32;100.00
10348;BME280;5220;43.192;23.284;2023-12-14T05:01:04;95937.81;;;8.18;100.00
10348;BME280;5220;43.192;23.284;2023-12-14T05:03:30;95956.25;;;7.93;100.00
10348;BME280;5220;43.192;23.284;2023-12-14T05:05:57;95965.50;;;8.06;100.00
10348;BME280;5220;43.192;23.284;2023-12-14T05:08:24;95974.59;;;7.90;100.00
10348;BME280;5220;43.192;23.284;2023-12-14T05:10:50;95970.59;;;7.30;100.00
10348;BME280;5220;43.192;23.284;2023-12-14T05:13:17;95966.59;;;7.82;100.00
10348;BME280;5220;43.192;23.284;2023-12-14T05:15:45;95982.94;;;8.04;100.00
10348;BME280;5220;43.192;23.284;2023-12-14T05:18:12;95991.50;;;8.27;100.00
10348;BME280;5220;43.192;23.284;2023-12-14T05:20:39;96020.22;;;8.46;100.00
10348;BME280;5220;43.192;23.284;2023-12-14T05:23:05;96000.53;;;8.76;100.00
10348;BME280;5220;43.192;23.284;2023-12-14T05:25:32;96019.09;;;8.71;100.00
10348;BME280;5220;43.192;23.284;2023-12-14T05:27:59;96023.94;;;8.53;100.00
10348;BME280;5220;43.192;23.284;2023-12-14T05:30:25;96008.00;;;8.37;100.00
10348;BME280;5220;43.192;23.284;2023-12-14T05:32:53;96012.22;;;8.27;100.00
10348;BME280;5220;43.192;23.284;2023-12-14T05:35:20;96027.78;;;8.05;100.00
10348;BME280;5220;43.192;23.284;2023-12-14T05:37:47;96031.22;;;8.05;100.00
10348;BME280;5220;43.192;23.284;2023-12-14T05:40:14;96032.69;;;8.52;100.00
10348;BME280;5220;43.192;23.284;2023-12-14T05:42:41;96054.41;;;8.40;100.00
10348;BME280;5220;43.192;23.284;2023-12-14T05:45:08;96066.03;;;8.35;100.00
10348;BME280;5220;43.192;23.284;2023-12-14T05:47:35;96025.81;;;8.62;100.00
10348;BME280;5220;43.192;23.284;2023-12-14T05:50:05;96071.53;;;8.63;100.00
10348;BME280;5220;43.192;23.284;2023-12-14T05:52:34;96072.41;;;8.53;100.00
10348;BME280;5220;43.192;23.284;2023-12-14T05:55:01;96028.78;;;8.90;100.00
10348;BME280;5220;43.192;23.284;2023-12-14T05:57:28;96079.69;;;9.02;100.00
10348;BME280;5220;43.192;23.284;2023-12-14T05:59:54;96089.38;;;8.89;100.00
10348;BME280;5220;43.192;23.284;2023-12-14T06:02:22;96078.13;;;9.31;100.00
10348;BME280;5220;43.192;23.284;2023-12-14T06:04:48;96086.03;;;9.50;100.00
10348;BME280;5220;43.192;23.284;2023-12-14T06:07:17;96085.91;;;9.31;100.00
10348;BME280;5220;43.192;23.284;2023-12-14T06:09:44;96089.78;;;9.37;100.00
10348;BME280;5220;43.192;23.284;2023-12-14T06:12:10;96075.84;;;9.17;100.00
10348;BME280;5220;43.192;23.284;2023-12-14T06:14:37;96073.22;;;9.49;100.00
10348;BME280;5220;43.192;23.284;2023-12-14T06:17:04;96082.00;;;9.57;100.00
10348;BME280;5220;43.192;23.284;2023-12-14T06:19:30;96107.03;;;9.58;100.00
10348;BME280;5220;43.192;23.284;2023-12-14T06:21:57;96117.72;;;9.65;100.00
10348;BME280;5220;43.192;23.284;2023-12-14T06:24:25;96117.75;;;9.74;100.00
10348;BME280;5220;43.192;23.284;2023-12-14T06:26:52;96127.84;;;9.89;100.00
10348;BME280;5220;43.192;23.284;2023-12-14T06:29:19;96134.44;;;9.93;100.00
10348;BME280;5220;43.192;23.284;2023-12-14T06:31:46;96137.38;;;10.09;100.00
10348;BME280;5220;43.192;23.284;2023-12-14T06:34:12;96135.69;;;10.19;100.00
10348;BME280;5220;43.192;23.284;2023-12-14T06:36:41;96138.16;;;10.00;100.00
10348;BME280;5220;43.192;23.284;2023-12-14T06:39:08;96140.94;;;10.08;100.00
10348;BME280;5220;43.192;23.284;2023-12-14T06:41:37;96145.75;;;10.12;100.00
10348;BME280;5220;43.192;23.284;2023-12-14T06:44:04;96139.44;;;10.05;100.00
10348;BME280;5220;43.192;23.284;2023-12-14T06:46:31;96149.13;;;10.24;100.00
10348;BME280;5220;43.192;23.284;2023-12-14T06:48:58;96147.59;;;10.21;100.00
10348;BME280;5220;43.192;23.284;2023-12-14T06:51:24;96139.06;;;10.40;100.00
10348;BME280;5220;43.192;23.284;2023-12-14T06:53:51;96148.31;;;10.54;100.00
10348;BME280;5220;43.192;23.284;2023-12-14T06:56:18;96140.66;;;10.62;100.00
10348;BME280;5220;43.192;23.284;2023-12-14T06:58:46;96156.66;;;10.57;100.00
10348;BME280;5220;43.192;23.284;2023-12-14T07:01:15;96141.22;;;10.65;100.00
10348;BME280;5220;43.192;23.284;2023-12-14T07:03:43;96149.88;;;10.75;100.00
10348;BME280;5220;43.192;23.284;2023-12-14T07:06:12;96151.69;;;10.85;100.00
10348;BME280;5220;43.192;23.284;2023-12-14T07:08:39;96142.81;;;10.97;100.00
10348;BME280;5220;43.192;23.284;2023-12-14T07:11:06;96141.16;;;11.05;100.00
10348;BME280;5220;43.192;23.284;2023-12-14T07:13:33;96148.31;;;11.13;100.00
10348;BME280;5220;43.192;23.284;2023-12-14T07:16:04;96146.56;;;11.23;100.00
10348;BME280;5220;43.192;23.284;2023-12-14T07:18:31;96166.28;;;11.16;100.00
10348;BME280;5220;43.192;23.284;2023-12-14T07:20:58;96173.69;;;11.30;100.00
10348;BME280;5220;43.192;23.284;2023-12-14T07:23:24;96175.34;;;11.41;100.00
10348;BME280;5220;43.192;23.284;2023-12-14T07:25:52;96176.31;;;11.49;100.00
10348;BME280;5220;43.192;23.284;2023-12-14T07:28:19;96179.47;;;11.53;100.00
10348;BME280;5220;43.192;23.284;2023-12-14T07:30:45;96174.53;;;11.59;100.00
10348;BME280;5220;43.192;23.284;2023-12-14T07:33:14;96165.50;;;11.63;100.00
10348;BME280;5220;43.192;23.284;2023-12-14T07:35:41;96187.47;;;11.70;100.00
10348;BME280;5220;43.192;23.284;2023-12-14T07:38:08;96184.03;;;11.79;100.00
10348;BME280;5220;43.192;23.284;2023-12-14T07:40:35;96186.91;;;11.86;100.00
10348;BME280;5220;43.192;23.284;2023-12-14T07:43:01;96181.25;;;11.91;100.00
10348;BME280;5220;43.192;23.284;2023-12-14T07:45:28;96186.59;;;11.99;100.00
10348;BME280;5220;43.192;23.284;2023-12-14T07:47:55;96181.94;;;12.02;100.00
10348;BME280;5220;43.192;23.284;2023-12-14T07:50:23;96186.75;;;12.07;100.00
10348;BME280;5220;43.192;23.284;2023-12-14T07:52:49;96188.91;;;12.11;100.00
10348;BME280;5220;43.192;23.284;2023-12-14T07:55:16;96193.44;;;12.19;100.00
10348;BME280;5220;43.192;23.284;2023-12-14T07:57:44;96190.25;;;12.25;100.00
10348;BME280;5220;43.192;23.284;2023-12-14T08:00:11;96194.38;;;12.27;100.00
10348;BME280;5220;43.192;23.284;2023-12-14T08:02:38;96201.50;;;12.35;100.00
10348;BME280;5220;43.192;23.284;2023-12-14T08:05:05;96200.94;;;12.41;100.00
10348;BME280;5220;43.192;23.284;2023-12-14T08:07:34;96203.25;;;12.44;100.00
10348;BME280;5220;43.192;23.284;2023-12-14T08:10:00;96218.19;;;12.52;100.00
10348;BME280;5220;43.192;23.284;2023-12-14T08:12:27;96205.16;;;12.52;100.00
10348;BME280;5220;43.192;23.284;2023-12-14T08:14:54;96216.66;;;12.59;100.00
10348;BME280;5220;43.192;23.284;2023-12-14T08:17:20;96215.28;;;12.64;100.00
10348;BME280;5220;43.192;23.284;2023-12-14T08:19:47;96209.63;;;12.69;100.00
10348;BME280;5220;43.192;23.284;2023-12-14T08:22:14;96205.63;;;12.74;100.00
10348;BME280;5220;43.192;23.284;2023-12-14T08:24:42;96198.88;;;12.81;100.00
10348;BME280;5220;43.192;23.284;2023-12-14T08:27:09;96205.84;;;12.90;100.00
10348;BME280;5220;43.192;23.284;2023-12-14T08:29:35;96212.66;;;13.01;100.00
10348;BME280;5220;43.192;23.284;2023-12-14T08:32:02;96217.06;;;13.10;100.00
10348;BME280;5220;43.192;23.284;2023-12-14T08:34:29;96222.91;;;13.22;100.00
10348;BME280;5220;43.192;23.284;2023-12-14T08:36:56;96213.34;;;13.30;100.00
10348;BME280;5220;43.192;23.284;2023-12-14T08:39:24;96220.94;;;13.24;100.00
10348;BME280;5220;43.192;23.284;2023-12-14T08:41:53;96217.56;;;13.41;100.00
10348;BME280;5220;43.192;23.284;2023-12-14T08:44:20;96205.16;;;13.43;100.00
10348;BME280;5220;43.192;23.284;2023-12-14T08:46:47;96201.59;;;13.44;100.00
10348;BME280;5220;43.192;23.284;2023-12-14T08:49:14;96216.97;;;13.47;100.00
10348;BME280;5220;43.192;23.284;2023-12-14T08:51:42;96224.78;;;13.29;100.00
10348;BME280;5220;43.192;23.284;2023-12-14T08:54:09;96216.84;;;13.21;100.00
10348;BME280;5220;43.192;23.284;2023-12-14T08:56:35;96217.03;;;13.37;100.00
10348;BME280;5220;43.192;23.284;2023-12-14T08:59:03;96229.06;;;13.48;100.00
10348;BME280;5220;43.192;23.284;2023-12-14T09:01:30;96234.44;;;13.64;100.00
10348;BME280;5220;43.192;23.284;2023-12-14T09:03:57;96238.41;;;13.68;100.00
10348;BME280;5220;43.192;23.284;2023-12-14T09:06:24;96235.38;;;13.73;100.00
10348;BME280;5220;43.192;23.284;2023-12-14T09:08:50;96224.63;;;13.76;100.00
10348;BME280;5220;43.192;23.284;2023-12-14T09:11:17;96230.50;;;14.13;100.00
10348;BME280;5220;43.192;23.284;2023-12-14T09:13:44;96225.19;;;14.23;100.00
10348;BME280;5220;43.192;23.284;2023-12-14T09:16:12;96235.44;;;14.34;100.00
10348;BME280;5220;43.192;23.284;2023-12-14T09:18:39;96239.00;;;14.50;100.00
10348;BME280;5220;43.192;23.284;2023-12-14T09:21:06;96236.69;;;14.47;100.00
10348;BME280;5220;43.192;23.284;2023-12-14T09:23:32;96252.53;;;14.28;100.00
10348;BME280;5220;43.192;23.284;2023-12-14T09:25:59;96242.22;;;14.44;100.00
10348;BME280;5220;43.192;23.284;2023-12-14T09:28:26;96243.81;;;13.84;100.00
10348;BME280;5220;43.192;23.284;2023-12-14T09:30:52;96248.28;;;13.92;100.00
10348;BME280;5220;43.192;23.284;2023-12-14T09:33:21;96253.91;;;13.97;100.00
10348;BME280;5220;43.192;23.284;2023-12-14T09:35:47;96242.44;;;14.16;100.00
10348;BME280;5220;43.192;23.284;2023-12-14T09:38:14;96255.44;;;14.08;100.00
10348;BME280;5220;43.192;23.284;2023-12-14T09:40:45;96255.22;;;14.01;100.00
10348;BME280;5220;43.192;23.284;2023-12-14T09:43:12;96248.59;;;14.07;100.00
10348;BME280;5220;43.192;23.284;2023-12-14T09:45:40;96260.47;;;14.19;100.00
10348;BME280;5220;43.192;23.284;2023-12-14T09:48:11;96252.31;;;14.22;100.00
10348;BME280;5220;43.192;23.284;2023-12-14T09:50:40;96253.19;;;13.95;100.00
10348;BME280;5220;43.192;23.284;2023-12-14T09:53:07;96260.25;;;13.94;100.00
10348;BME280;5220;43.192;23.284;2023-12-14T09:55:34;96252.09;;;13.97;100.00
10348;BME280;5220;43.192;23.284;2023-12-14T09:58:01;96251.72;;;13.92;100.00
10348;BME280;5220;43.192;23.284;2023-12-14T10:00:36;96230.44;;;13.87;100.00
10348;BME280;5220;43.192;23.284;2023-12-14T10:03:18;96244.63;;;13.85;100.00
10348;BME280;5220;43.192;23.284;2023-12-14T10:05:49;96248.19;;;14.01;100.00
10348;BME280;5220;43.192;23.284;2023-12-14T10:08:16;96244.34;;;13.88;100.00
10348;BME280;5220;43.192;23.284;2023-12-14T10:10:45;96245.13;;;13.71;100.00
10348;BME280;5220;43.192;23.284;2023-12-14T10:13:14;96242.88;;;13.58;100.00
10348;BME280;5220;43.192;23.284;2023-12-14T10:15:41;96243.34;;;13.71;100.00
10348;BME280;5220;43.192;23.284;2023-12-14T10:18:08;96252.72;;;13.91;100.00
10348;BME280;5220;43.192;23.284;2023-12-14T10:20:35;96256.22;;;14.00;100.00
10348;BME280;5220;43.192;23.284;2023-12-14T10:23:05;96273.25;;;14.04;100.00
10348;BME280;5220;43.192;23.284;2023-12-14T10:25:32;96273.94;;;13.61;100.00
10348;BME280;5220;43.192;23.284;2023-12-14T10:27:59;96290.63;;;13.60;100.00
10348;BME280;5220;43.192;23.284;2023-12-14T10:30:28;96301.56;;;13.64;100.00
10348;BME280;5220;43.192;23.284;2023-12-14T10:32:55;96306.25;;;13.70;100.00
10348;BME280;5220;43.192;23.284;2023-12-14T10:35:22;96291.47;;;13.78;100.00
10348;BME280;5220;43.192;23.284;2023-12-14T10:37:50;96280.47;;;13.92;100.00
10348;BME280;5220;43.192;23.284;2023-12-14T10:40:19;96268.53;;;13.90;100.00
10348;BME280;5220;43.192;23.284;2023-12-14T10:42:47;96274.28;;;13.93;100.00
10348;BME280;5220;43.192;23.284;2023-12-14T10:45:16;96276.91;;;13.93;100.00
10348;BME280;5220;43.192;23.284;2023-12-14T10:47:46;96279.75;;;14.00;100.00
10348;BME280;5220;43.192;23.284;2023-12-14T10:50:14;96281.47;;;13.91;100.00
10348;BME280;5220;43.192;23.284;2023-12-14T10:52:42;96281.66;;;13.98;100.00
10348;BME280;5220;43.192;23.284;2023-12-14T10:55:15;96280.25;;;13.86;100.00
10348;BME280;5220;43.192;23.284;2023-12-14T10:57:46;96264.72;;;13.84;100.00
10348;BME280;5220;43.192;23.284;2023-12-14T11:00:16;96284.88;;;13.92;100.00
10348;BME280;5220;43.192;23.284;2023-12-14T11:02:45;96278.31;;;13.88;100.00
10348;BME280;5220;43.192;23.284;2023-12-14T11:05:14;96294.84;;;13.88;100.00
10348;BME280;5220;43.192;23.284;2023-12-14T11:07:49;96277.88;;;13.92;100.00
10348;BME280;5220;43.192;23.284;2023-12-14T11:10:21;96286.75;;;13.99;100.00
10348;BME280;5220;43.192;23.284;2023-12-14T11:12:55;96294.59;;;13.99;100.00
10348;BME280;5220;43.192;23.284;2023-12-14T11:15:22;96281.19;;;13.50;100.00
10348;BME280;5220;43.192;23.284;2023-12-14T11:18:24;96278.97;;;12.81;100.00
10348;BME280;5220;43.192;23.284;2023-12-14T11:20:54;96276.59;;;13.34;100.00
10348;BME280;5220;43.192;23.284;2023-12-14T11:23:31;96276.47;;;13.53;100.00
10348;BME280;5220;43.192;23.284;2023-12-14T11:26:01;96282.81;;;13.51;100.00
10348;BME280;5220;43.192;23.284;2023-12-14T11:28:32;96278.56;;;13.50;100.00
10348;BME280;5220;43.192;23.284;2023-12-14T11:31:00;96294.84;;;13.61;100.00
10348;BME280;5220;43.192;23.284;2023-12-14T11:33:27;96292.34;;;13.69;100.00
10348;BME280;5220;43.192;23.284;2023-12-14T11:35:54;96291.13;;;13.64;100.00
10348;BME280;5220;43.192;23.284;2023-12-14T11:38:22;96295.78;;;13.15;100.00
10348;BME280;5220;43.192;23.284;2023-12-14T11:40:49;96296.13;;;13.30;100.00
10348;BME280;5220;43.192;23.284;2023-12-14T11:43:16;96310.50;;;13.07;100.00
10348;BME280;5220;43.192;23.284;2023-12-14T11:45:47;96297.41;;;13.26;100.00
10348;BME280;5220;43.192;23.284;2023-12-14T11:48:14;96296.53;;;13.35;100.00
10348;BME280;5220;43.192;23.284;2023-12-14T11:50:42;96295.78;;;13.42;100.00
10348;BME280;5220;43.192;23.284;2023-12-14T11:53:10;96292.75;;;13.47;100.00
10348;BME280;5220;43.192;23.284;2023-12-14T11:55:38;96286.25;;;13.24;100.00
10348;BME280;5220;43.192;23.284;2023-12-14T11:58:06;96291.56;;;12.95;100.00
10348;BME280;5220;43.192;23.284;2023-12-14T12:00:34;96302.78;;;13.05;100.00
10348;BME280;5220;43.192;23.284;2023-12-14T12:03:11;96298.53;;;13.14;100.00
10348;BME280;5220;43.192;23.284;2023-12-14T12:05:40;96279.97;;;13.17;100.00
10348;BME280;5220;43.192;23.284;2023-12-14T12:08:07;96271.72;;;13.12;100.00
10348;BME280;5220;43.192;23.284;2023-12-14T12:10:34;96267.34;;;13.12;100.00
10348;BME280;5220;43.192;23.284;2023-12-14T12:13:03;96265.94;;;13.18;100.00
10348;BME280;5220;43.192;23.284;2023-12-14T12:15:31;96253.56;;;13.20;100.00
10348;BME280;5220;43.192;23.284;2023-12-14T12:17:58;96256.84;;;13.22;100.00
10348;BME280;5220;43.192;23.284;2023-12-14T12:20:26;96263.03;;;13.21;100.00
10348;BME280;5220;43.192;23.284;2023-12-14T12:22:53;96258.78;;;13.20;100.00
10348;BME280;5220;43.192;23.284;2023-12-14T12:25:20;96256.31;;;13.18;100.00
10348;BME280;5220;43.192;23.284;2023-12-14T12:27:48;96255.66;;;13.16;100.00
10348;BME280;5220;43.192;23.284;2023-12-14T12:30:15;96252.34;;;13.14;100.00
10348;BME280;5220;43.192;23.284;2023-12-14T12:32:41;96260.72;;;12.71;100.00
10348;BME280;5220;43.192;23.284;2023-12-14T12:35:09;96265.25;;;12.79;100.00
10348;BME280;5220;43.192;23.284;2023-12-14T12:37:37;96277.09;;;12.64;100.00
10348;BME280;5220;43.192;23.284;2023-12-14T12:40:05;96280.31;;;12.38;100.00
10348;BME280;5220;43.192;23.284;2023-12-14T12:42:32;96280.41;;;12.37;100.00
10348;BME280;5220;43.192;23.284;2023-12-14T12:44:59;96281.91;;;12.49;100.00
10348;BME280;5220;43.192;23.284;2023-12-14T12:47:26;96284.41;;;12.41;100.00
10348;BME280;5220;43.192;23.284;2023-12-14T12:49:53;96285.91;;;12.53;100.00
10348;BME280;5220;43.192;23.284;2023-12-14T12:52:19;96256.69;;;12.86;100.00
10348;BME280;5220;43.192;23.284;2023-12-14T12:54:47;96260.56;;;12.82;100.00
10348;BME280;5220;43.192;23.284;2023-12-14T12:57:14;96284.47;;;12.78;100.00
10348;BME280;5220;43.192;23.284;2023-12-14T12:59:41;96290.50;;;12.78;100.00